Portada
METAR-TAF:

METAR-TAF

Aeroports :

Ardabil, Iran

latitud: 38-19-35N, longitud: 048-25-28E, altitud: 1315 m

Observació

L'informe es va fer fa 1 hora i 0 minuts, a les 21:52 UTC
Vent calma
Temperatura 2°C
Humitat 100%
Pressió 1025 hPa
Visibilitat: 0400 m
Cel cobert a una alçada de 200 ft
boira

METAR: OITL 132152Z 00000KT 0400 R33/0500N FG OVC002 02/02 Q1025

Hora: 02:22 (22:52 UTC)


TAF: manca

Observacions i pronòstics meteorològics de més de 4000 aeroports (METAR i TAF).

Les estacions disponibles són els punts grocs i vermells al mapa.

Posi el ratolí al punt desitjat per veure el nom de l'estació.

Feu clic per veure les observacions i els pronòstics meteorològics.

Per canviar el mapa: feu clic els botons verds amb una creu de color negre per apropar; al botó verd amb un guió per allunyar la imatge; o en les fletxes verdes per a mapes adjacents.


METAR-TAF: